McCall, ID

3:01 AM MDT on August 01, 2014 (GMT -0600)
McCall (KMYL) Elev 5020 ft | 44.89 °N, 116.10 °W | Change Station

Current weather conditions updated 10 minutes ago

Clear
Clear
64 °F
Feels Like 64 °F
N
4
Wind Variable Wind from Variable

Today is forecast to be nearly the same temperature as yesterday.

Today
High -- | Low -- °F
--% Chance of Precip.
Yesterday
High -- | Low -- °F
Precip. -- in
6:30 AM 9:10 PM
Waxing Crescent, 25% visible
Pressure 30.04 in
Visibility 10.0 miles
Clouds Clear
Dew Point 47 °F
Humidity 54%
Rainfall 0.00 in
Snow Depth Not available.
UV 0 out of 12
Pollen 5.80 out of 12
Air Quality Not available.
Flu Activity Not available.
METAR KMYL 010851Z AUTO VRB03KT 10SM CLR 18/08 A3020 RMK AO2 SLP172 T01780083 58005

More Conditions Fewer Conditions

Pressure 30.04 in
Visibility 10.0 miles
Clouds Clear
Dew Point 47 °F
Humidity 54%
Rainfall 0.00 in
Snow Depth Not available.
UV 0 out of 12
Pollen 5.80 out of 12
Air Quality Not available.
Flu Activity Not available.
METAR KMYL 010851Z AUTO VRB03KT 10SM CLR 18/08 A3020 RMK AO2 SLP172 T01780083 58005

More Conditions Fewer Conditions

10-Day Weather Forecast

Almanac

Astronomy

Aug. 01, 2014 Rise Set
Actual Time 6:30 AM MDT 9:10 PM MDT
Civil Twilight 5:56 AM MDT 9:44 PM MDT
Nautical Twilight 5:13 AM MDT 10:26 PM MDT
Astronomical Twilight 4:24 AM MDT 11:14 PM MDT
Moon 12:14 PM MDT 11:40 PM MDT
Length of Visible Light 15h 47m
Length of Day
14h 40m
Tomorrow will be 2m 26s shorter.
Waxing Crescent, 25% of the Moon is Illuminated
Today
Waxing Crescent
Aug 3
First Quarter
Aug 10
Full
Aug 17
Last Quarter
Aug 25
New

Today's Extremes

State Highs State Lows

Community

WunderPhotos

Upload Photos

1,739,529 photos uploaded!

Nearby

Snow Depth

Station Depth Elevation
Bear Basin 0 in 5350 ft
Long Valley 0 in 4890 ft
Brundage Reservoir 0 in 6300 ft
Squaw Flat 0 in 6240 ft
West Branch 1 in 5560 ft

Earthquake Activity

City Distance Mag. Time & Date
No recent earthquake activity has been reported nearby.
Minimum magnitude displayed is 2.5.

Coastal Water Temperatures

Place Temperature
No Stations Reporting

Nearby Weather Stations

Station Location Temp. Heat Index Dew Point Humidity Wind Precip. Elev Updated Type
MAP MCCALL AIR (P023) ID , McCall, ID 63 °F - 50 °F 61% NNW  at  10 mph 0.00 in / hr 4993 ft 2:00 AM MDT MADIS
RAWS SKI HILL ID, New Meadows, ID 65 °F - 46 °F 50% East  at  4 mph 0.00 in / hr 5296 ft 1:58 AM MDT MADIS
Railroad Village, Donnelly, ID 53.4 °F - 48 °F 82% North  at  0.0 mph 0.00 in / hr 4872 ft 3:01 AM MDT Rapid Fire
RAWS TEA POT ID, Lake Fork, ID 66 °F - 43 °F 44% ENE  at  3 mph 0.00 in / hr 5174 ft 1:39 AM MDT MADIS
RAWS WEISER RIVER ID, Council, ID 73 °F 77 °F 45 °F 37% North  at  4 mph 0.00 in / hr 3804 ft 1:42 AM MDT MADIS
HADS COUNCIL WEATHER STATION ID, Council, ID 68 °F - - - North  at  - 0.00 in / hr 2950 ft 2:30 AM MDT MADIS

Show More Stations Show Fewer Stations